sensor_id;sensor_type;location;lat;lon;timestamp;temperature;humidity
8114;DHT22;4099;52.684;9.918;2024-01-30T00:03:10;0.10;99.90
8114;DHT22;4099;52.684;9.918;2024-01-30T00:08:14;0.00;99.90
8114;DHT22;4099;52.684;9.918;2024-01-30T00:13:21;-0.10;99.90
8114;DHT22;4099;52.684;9.918;2024-01-30T00:18:24;0.00;99.90
8114;DHT22;4099;52.684;9.918;2024-01-30T00:23:26;0.10;99.90
8114;DHT22;4099;52.684;9.918;2024-01-30T00:28:31;0.20;99.90
8114;DHT22;4099;52.684;9.918;2024-01-30T00:33:33;-0.10;99.90
8114;DHT22;4099;52.684;9.918;2024-01-30T00:38:35;-0.30;99.90
8114;DHT22;4099;52.684;9.918;2024-01-30T00:43:39;-0.40;99.90
8114;DHT22;4099;52.684;9.918;2024-01-30T00:48:41;-0.20;99.90
8114;DHT22;4099;52.684;9.918;2024-01-30T00:53:46;0.10;99.90
8114;DHT22;4099;52.684;9.918;2024-01-30T00:58:49;0.20;99.90
8114;DHT22;4099;52.684;9.918;2024-01-30T01:03:51;-0.10;99.90
8114;DHT22;4099;52.684;9.918;2024-01-30T01:08:58;-0.30;99.90
8114;DHT22;4099;52.684;9.918;2024-01-30T01:14:02;-0.20;99.90
8114;DHT22;4099;52.684;9.918;2024-01-30T01:19:06;-0.10;99.90
8114;DHT22;4099;52.684;9.918;2024-01-30T01:24:08;-0.30;99.90
8114;DHT22;4099;52.684;9.918;2024-01-30T01:29:11;0.00;99.90
8114;DHT22;4099;52.684;9.918;2024-01-30T01:34:13;0.10;99.90
8114;DHT22;4099;52.684;9.918;2024-01-30T01:39:18;-0.20;99.90
8114;DHT22;4099;52.684;9.918;2024-01-30T01:44:24;-0.20;99.90
8114;DHT22;4099;52.684;9.918;2024-01-30T01:49:27;-0.20;99.90
8114;DHT22;4099;52.684;9.918;2024-01-30T01:54:33;-0.20;99.90
8114;DHT22;4099;52.684;9.918;2024-01-30T01:59:38;-0.20;99.90
8114;DHT22;4099;52.684;9.918;2024-01-30T02:04:41;0.00;99.90
8114;DHT22;4099;52.684;9.918;2024-01-30T02:09:43;0.20;99.90
8114;DHT22;4099;52.684;9.918;2024-01-30T02:14:47;0.20;99.90
8114;DHT22;4099;52.684;9.918;2024-01-30T02:19:49;0.30;99.90
8114;DHT22;4099;52.684;9.918;2024-01-30T02:24:52;0.20;99.90
8114;DHT22;4099;52.684;9.918;2024-01-30T02:29:54;0.10;99.90
8114;DHT22;4099;52.684;9.918;2024-01-30T02:34:56;0.10;99.90
8114;DHT22;4099;52.684;9.918;2024-01-30T02:40:01;0.00;99.90
8114;DHT22;4099;52.684;9.918;2024-01-30T02:45:08;0.10;99.90
8114;DHT22;4099;52.684;9.918;2024-01-30T02:50:10;0.30;99.90
8114;DHT22;4099;52.684;9.918;2024-01-30T02:55:13;0.30;99.90
8114;DHT22;4099;52.684;9.918;2024-01-30T03:00:19;0.30;99.90
8114;DHT22;4099;52.684;9.918;2024-01-30T03:05:21;0.50;99.90
8114;DHT22;4099;52.684;9.918;2024-01-30T03:10:24;0.20;99.90
8114;DHT22;4099;52.684;9.918;2024-01-30T03:15:26;0.40;99.90
8114;DHT22;4099;52.684;9.918;2024-01-30T03:20:28;0.60;99.90
8114;DHT22;4099;52.684;9.918;2024-01-30T03:25:35;0.40;99.90
8114;DHT22;4099;52.684;9.918;2024-01-30T03:30:37;0.20;99.90
8114;DHT22;4099;52.684;9.918;2024-01-30T03:35:39;0.10;99.90
8114;DHT22;4099;52.684;9.918;2024-01-30T03:40:43;0.40;99.90
8114;DHT22;4099;52.684;9.918;2024-01-30T03:45:48;0.30;99.90
8114;DHT22;4099;52.684;9.918;2024-01-30T03:50:49;0.10;99.90
8114;DHT22;4099;52.684;9.918;2024-01-30T03:55:56;0.50;99.90
8114;DHT22;4099;52.684;9.918;2024-01-30T04:00:58;0.30;99.90
8114;DHT22;4099;52.684;9.918;2024-01-30T04:06:00;0.10;99.90
8114;DHT22;4099;52.684;9.918;2024-01-30T04:11:05;0.10;99.90
8114;DHT22;4099;52.684;9.918;2024-01-30T04:16:07;0.10;99.90
8114;DHT22;4099;52.684;9.918;2024-01-30T04:21:09;0.00;99.90
8114;DHT22;4099;52.684;9.918;2024-01-30T04:26:15;0.00;99.90
8114;DHT22;4099;52.684;9.918;2024-01-30T04:31:16;0.20;99.90
8114;DHT22;4099;52.684;9.918;2024-01-30T04:36:21;0.40;99.90
8114;DHT22;4099;52.684;9.918;2024-01-30T04:41:25;0.30;99.90
8114;DHT22;4099;52.684;9.918;2024-01-30T04:46:31;-0.10;99.90
8114;DHT22;4099;52.684;9.918;2024-01-30T04:51:35;-0.30;99.90
8114;DHT22;4099;52.684;9.918;2024-01-30T04:56:38;-0.30;99.90
8114;DHT22;4099;52.684;9.918;2024-01-30T05:01:40;-0.20;99.90
8114;DHT22;4099;52.684;9.918;2024-01-30T05:06:42;-0.10;99.90
8114;DHT22;4099;52.684;9.918;2024-01-30T05:11:45;-0.20;99.90
8114;DHT22;4099;52.684;9.918;2024-01-30T05:16:47;-0.20;99.90
8114;DHT22;4099;52.684;9.918;2024-01-30T05:21:52;-0.30;99.90
8114;DHT22;4099;52.684;9.918;2024-01-30T05:26:55;-0.30;99.90
8114;DHT22;4099;52.684;9.918;2024-01-30T05:31:57;-0.20;99.90
8114;DHT22;4099;52.684;9.918;2024-01-30T05:36:59;-0.10;99.90
8114;DHT22;4099;52.684;9.918;2024-01-30T05:42:05;-0.30;99.90
8114;DHT22;4099;52.684;9.918;2024-01-30T05:47:06;-0.30;99.90
8114;DHT22;4099;52.684;9.918;2024-01-30T05:52:08;-0.20;99.90
8114;DHT22;4099;52.684;9.918;2024-01-30T05:57:11;-0.30;99.90
8114;DHT22;4099;52.684;9.918;2024-01-30T06:02:13;-0.30;99.90
8114;DHT22;4099;52.684;9.918;2024-01-30T06:07:15;-0.50;99.90
8114;DHT22;4099;52.684;9.918;2024-01-30T06:12:19;-0.50;99.90
8114;DHT22;4099;52.684;9.918;2024-01-30T06:17:21;-0.40;99.90
8114;DHT22;4099;52.684;9.918;2024-01-30T06:22:23;-0.40;99.90
8114;DHT22;4099;52.684;9.918;2024-01-30T06:27:26;-0.30;99.90
8114;DHT22;4099;52.684;9.918;2024-01-30T06:32:28;-0.30;99.90
8114;DHT22;4099;52.684;9.918;2024-01-30T06:37:37;-0.30;99.90
8114;DHT22;4099;52.684;9.918;2024-01-30T06:42:40;-0.30;99.90
8114;DHT22;4099;52.684;9.918;2024-01-30T06:47:45;-0.20;99.90
8114;DHT22;4099;52.684;9.918;2024-01-30T06:52:47;-0.20;99.90
8114;DHT22;4099;52.684;9.918;2024-01-30T06:57:53;-0.20;99.90
8114;DHT22;4099;52.684;9.918;2024-01-30T07:02:57;-0.30;99.90
8114;DHT22;4099;52.684;9.918;2024-01-30T07:07:59;-0.30;99.90
8114;DHT22;4099;52.684;9.918;2024-01-30T07:13:04;-0.40;99.90
8114;DHT22;4099;52.684;9.918;2024-01-30T07:18:09;-0.20;99.90
8114;DHT22;4099;52.684;9.918;2024-01-30T07:23:11;0.00;99.90
8114;DHT22;4099;52.684;9.918;2024-01-30T07:28:18;0.10;99.90
8114;DHT22;4099;52.684;9.918;2024-01-30T07:33:20;0.20;99.90
8114;DHT22;4099;52.684;9.918;2024-01-30T07:38:31;0.50;99.90
8114;DHT22;4099;52.684;9.918;2024-01-30T07:43:34;0.40;99.90
8114;DHT22;4099;52.684;9.918;2024-01-30T07:48:36;0.50;99.90
8114;DHT22;4099;52.684;9.918;2024-01-30T07:53:38;0.40;99.90
8114;DHT22;4099;52.684;9.918;2024-01-30T07:58:44;0.50;99.90
8114;DHT22;4099;52.684;9.918;2024-01-30T08:03:49;0.70;99.90
8114;DHT22;4099;52.684;9.918;2024-01-30T08:08:51;0.90;99.90
8114;DHT22;4099;52.684;9.918;2024-01-30T08:13:55;1.10;99.90
8114;DHT22;4099;52.684;9.918;2024-01-30T08:18:57;1.20;99.90
8114;DHT22;4099;52.684;9.918;2024-01-30T08:23:59;1.30;99.90
8114;DHT22;4099;52.684;9.918;2024-01-30T08:29:07;1.50;99.90
8114;DHT22;4099;52.684;9.918;2024-01-30T08:34:09;1.60;99.90
8114;DHT22;4099;52.684;9.918;2024-01-30T08:39:11;1.60;99.90
8114;DHT22;4099;52.684;9.918;2024-01-30T08:44:14;1.70;99.90
8114;DHT22;4099;52.684;9.918;2024-01-30T08:49:16;1.80;99.90
8114;DHT22;4099;52.684;9.918;2024-01-30T08:54:18;2.00;99.90
8114;DHT22;4099;52.684;9.918;2024-01-30T08:59:21;2.20;99.90
8114;DHT22;4099;52.684;9.918;2024-01-30T09:04:23;2.40;99.90
8114;DHT22;4099;52.684;9.918;2024-01-30T09:09:25;2.70;99.90
8114;DHT22;4099;52.684;9.918;2024-01-30T09:14:34;3.10;99.90
8114;DHT22;4099;52.684;9.918;2024-01-30T09:19:36;3.40;99.90
8114;DHT22;4099;52.684;9.918;2024-01-30T09:24:38;3.70;99.90
8114;DHT22;4099;52.684;9.918;2024-01-30T09:29:41;4.00;99.90
8114;DHT22;4099;52.684;9.918;2024-01-30T09:34:43;4.40;99.90
8114;DHT22;4099;52.684;9.918;2024-01-30T09:39:45;5.00;99.90
8114;DHT22;4099;52.684;9.918;2024-01-30T09:44:50;5.70;99.90
8114;DHT22;4099;52.684;9.918;2024-01-30T09:49:52;6.20;99.90
8114;DHT22;4099;52.684;9.918;2024-01-30T09:54:54;6.70;99.90
8114;DHT22;4099;52.684;9.918;2024-01-30T09:59:57;7.00;99.90
8114;DHT22;4099;52.684;9.918;2024-01-30T10:05:00;7.40;99.90
8114;DHT22;4099;52.684;9.918;2024-01-30T10:10:02;7.70;99.90
8114;DHT22;4099;52.684;9.918;2024-01-30T10:15:07;7.90;99.90
8114;DHT22;4099;52.684;9.918;2024-01-30T10:20:10;8.20;99.90
8114;DHT22;4099;52.684;9.918;2024-01-30T10:25:12;8.40;99.90
8114;DHT22;4099;52.684;9.918;2024-01-30T10:30:18;8.60;99.90
8114;DHT22;4099;52.684;9.918;2024-01-30T10:35:24;8.70;99.90
8114;DHT22;4099;52.684;9.918;2024-01-30T10:40:28;8.90;99.90
8114;DHT22;4099;52.684;9.918;2024-01-30T10:45:32;9.10;99.90
8114;DHT22;4099;52.684;9.918;2024-01-30T10:50:34;9.30;99.90
8114;DHT22;4099;52.684;9.918;2024-01-30T10:55:37;9.50;99.90
8114;DHT22;4099;52.684;9.918;2024-01-30T11:00:41;9.70;99.90
8114;DHT22;4099;52.684;9.918;2024-01-30T11:05:48;9.80;99.90
8114;DHT22;4099;52.684;9.918;2024-01-30T11:10:54;10.00;99.90
8114;DHT22;4099;52.684;9.918;2024-01-30T11:16:00;10.00;99.90
8114;DHT22;4099;52.684;9.918;2024-01-30T11:21:04;10.00;99.90
8114;DHT22;4099;52.684;9.918;2024-01-30T11:26:06;10.00;99.90
8114;DHT22;4099;52.684;9.918;2024-01-30T11:31:23;10.00;99.90
8114;DHT22;4099;52.684;9.918;2024-01-30T11:37:09;10.20;99.90
8114;DHT22;4099;52.684;9.918;2024-01-30T11:48:57;10.20;99.90
8114;DHT22;4099;52.684;9.918;2024-01-30T11:54:00;10.50;99.90
8114;DHT22;4099;52.684;9.918;2024-01-30T11:59:02;10.60;99.90
8114;DHT22;4099;52.684;9.918;2024-01-30T12:04:05;10.70;99.90
8114;DHT22;4099;52.684;9.918;2024-01-30T12:09:09;10.70;99.90
8114;DHT22;4099;52.684;9.918;2024-01-30T12:14:18;10.80;99.90
8114;DHT22;4099;52.684;9.918;2024-01-30T12:19:25;11.10;99.90
8114;DHT22;4099;52.684;9.918;2024-01-30T12:24:28;11.30;99.90
8114;DHT22;4099;52.684;9.918;2024-01-30T12:29:32;12.00;99.90
8114;DHT22;4099;52.684;9.918;2024-01-30T12:34:40;12.40;99.90
8114;DHT22;4099;52.684;9.918;2024-01-30T12:39:44;12.40;99.90
8114;DHT22;4099;52.684;9.918;2024-01-30T12:44:46;13.10;99.90
8114;DHT22;4099;52.684;9.918;2024-01-30T12:49:52;13.00;99.90
8114;DHT22;4099;52.684;9.918;2024-01-30T12:54:54;12.50;99.90
8114;DHT22;4099;52.684;9.918;2024-01-30T12:59:56;12.20;99.90
8114;DHT22;4099;52.684;9.918;2024-01-30T13:04:59;12.10;99.90
8114;DHT22;4099;52.684;9.918;2024-01-30T13:10:02;11.90;99.90
8114;DHT22;4099;52.684;9.918;2024-01-30T13:15:05;11.80;99.90
8114;DHT22;4099;52.684;9.918;2024-01-30T13:20:09;11.60;99.90
8114;DHT22;4099;52.684;9.918;2024-01-30T13:25:12;11.40;99.90
8114;DHT22;4099;52.684;9.918;2024-01-30T13:30:14;11.40;99.90
8114;DHT22;4099;52.684;9.918;2024-01-30T13:35:17;11.30;99.90
8114;DHT22;4099;52.684;9.918;2024-01-30T13:40:18;11.40;99.90
8114;DHT22;4099;52.684;9.918;2024-01-30T13:45:20;11.30;99.90
8114;DHT22;4099;52.684;9.918;2024-01-30T13:50:23;11.20;99.90
8114;DHT22;4099;52.684;9.918;2024-01-30T13:55:27;11.20;99.90
8114;DHT22;4099;52.684;9.918;2024-01-30T14:00:32;11.10;99.90
8114;DHT22;4099;52.684;9.918;2024-01-30T14:05:36;11.10;99.90
8114;DHT22;4099;52.684;9.918;2024-01-30T14:10:37;11.10;99.90
8114;DHT22;4099;52.684;9.918;2024-01-30T14:15:39;11.00;99.90
8114;DHT22;4099;52.684;9.918;2024-01-30T14:20:44;10.90;99.90
8114;DHT22;4099;52.684;9.918;2024-01-30T14:25:45;11.00;99.90
8114;DHT22;4099;52.684;9.918;2024-01-30T14:30:47;11.00;99.90
8114;DHT22;4099;52.684;9.918;2024-01-30T14:35:51;10.90;99.90
8114;DHT22;4099;52.684;9.918;2024-01-30T14:40:53;10.90;99.90
8114;DHT22;4099;52.684;9.918;2024-01-30T14:45:56;10.90;99.90
8114;DHT22;4099;52.684;9.918;2024-01-30T14:51:00;11.00;99.90
8114;DHT22;4099;52.684;9.918;2024-01-30T14:56:02;10.90;99.90
8114;DHT22;4099;52.684;9.918;2024-01-30T15:01:05;10.90;99.90
8114;DHT22;4099;52.684;9.918;2024-01-30T15:06:09;10.90;99.90
8114;DHT22;4099;52.684;9.918;2024-01-30T15:11:11;10.90;99.90
8114;DHT22;4099;52.684;9.918;2024-01-30T15:16:14;10.80;99.90
8114;DHT22;4099;52.684;9.918;2024-01-30T15:21:18;10.70;99.90
8114;DHT22;4099;52.684;9.918;2024-01-30T15:26:23;10.70;99.90
8114;DHT22;4099;52.684;9.918;2024-01-30T15:31:25;10.80;99.90
8114;DHT22;4099;52.684;9.918;2024-01-30T15:36:31;10.70;99.90
8114;DHT22;4099;52.684;9.918;2024-01-30T15:41:33;10.70;99.90
8114;DHT22;4099;52.684;9.918;2024-01-30T15:46:37;10.80;99.90
8114;DHT22;4099;52.684;9.918;2024-01-30T15:51:40;10.90;99.90
8114;DHT22;4099;52.684;9.918;2024-01-30T15:56:41;10.90;99.90
8114;DHT22;4099;52.684;9.918;2024-01-30T16:01:43;10.90;99.90
8114;DHT22;4099;52.684;9.918;2024-01-30T16:06:52;11.00;99.90
8114;DHT22;4099;52.684;9.918;2024-01-30T16:11:54;10.90;99.90
8114;DHT22;4099;52.684;9.918;2024-01-30T16:16:58;10.80;99.90
8114;DHT22;4099;52.684;9.918;2024-01-30T16:22:01;10.90;99.90
8114;DHT22;4099;52.684;9.918;2024-01-30T16:27:07;10.90;99.90
8114;DHT22;4099;52.684;9.918;2024-01-30T16:32:11;11.00;99.90
8114;DHT22;4099;52.684;9.918;2024-01-30T16:37:14;11.00;99.90
8114;DHT22;4099;52.684;9.918;2024-01-30T16:42:19;10.90;99.90
8114;DHT22;4099;52.684;9.918;2024-01-30T16:47:21;10.90;99.90
8114;DHT22;4099;52.684;9.918;2024-01-30T16:52:24;10.80;99.90
8114;DHT22;4099;52.684;9.918;2024-01-30T16:57:26;10.70;99.90
8114;DHT22;4099;52.684;9.918;2024-01-30T17:02:28;10.60;99.90
8114;DHT22;4099;52.684;9.918;2024-01-30T17:07:31;10.50;99.90
8114;DHT22;4099;52.684;9.918;2024-01-30T17:12:35;10.50;99.90
8114;DHT22;4099;52.684;9.918;2024-01-30T17:17:38;10.40;99.90
8114;DHT22;4099;52.684;9.918;2024-01-30T17:22:41;10.40;99.90
8114;DHT22;4099;52.684;9.918;2024-01-30T17:27:42;10.40;99.90
8114;DHT22;4099;52.684;9.918;2024-01-30T17:32:45;10.30;99.90
8114;DHT22;4099;52.684;9.918;2024-01-30T17:37:48;10.30;99.90
8114;DHT22;4099;52.684;9.918;2024-01-30T17:42:52;10.50;99.90
8114;DHT22;4099;52.684;9.918;2024-01-30T17:47:55;10.40;99.90
8114;DHT22;4099;52.684;9.918;2024-01-30T17:53:01;10.40;99.90
8114;DHT22;4099;52.684;9.918;2024-01-30T17:58:05;10.30;99.90
8114;DHT22;4099;52.684;9.918;2024-01-30T18:03:07;10.20;99.90
8114;DHT22;4099;52.684;9.918;2024-01-30T18:08:10;10.10;99.90
8114;DHT22;4099;52.684;9.918;2024-01-30T18:13:11;10.10;99.90
8114;DHT22;4099;52.684;9.918;2024-01-30T18:18:14;10.00;99.90
8114;DHT22;4099;52.684;9.918;2024-01-30T18:23:18;9.90;99.90
8114;DHT22;4099;52.684;9.918;2024-01-30T18:28:21;9.90;99.90
8114;DHT22;4099;52.684;9.918;2024-01-30T18:33:23;9.90;99.90
8114;DHT22;4099;52.684;9.918;2024-01-30T18:38:26;9.80;99.90
8114;DHT22;4099;52.684;9.918;2024-01-30T18:43:27;9.70;99.90
8114;DHT22;4099;52.684;9.918;2024-01-30T18:48:29;9.60;99.90
8114;DHT22;4099;52.684;9.918;2024-01-30T18:53:33;9.70;99.90
8114;DHT22;4099;52.684;9.918;2024-01-30T18:58:37;9.80;99.90
8114;DHT22;4099;52.684;9.918;2024-01-30T19:03:39;9.80;99.90
8114;DHT22;4099;52.684;9.918;2024-01-30T19:08:42;9.80;99.90
8114;DHT22;4099;52.684;9.918;2024-01-30T19:13:45;9.90;99.90
8114;DHT22;4099;52.684;9.918;2024-01-30T19:18:46;9.80;99.90
8114;DHT22;4099;52.684;9.918;2024-01-30T19:23:53;9.70;99.90
8114;DHT22;4099;52.684;9.918;2024-01-30T19:28:59;9.50;99.90
8114;DHT22;4099;52.684;9.918;2024-01-30T19:34:01;9.40;99.90
8114;DHT22;4099;52.684;9.918;2024-01-30T19:39:06;9.40;99.90
8114;DHT22;4099;52.684;9.918;2024-01-30T19:44:13;9.40;99.90
8114;DHT22;4099;52.684;9.918;2024-01-30T19:49:15;9.30;99.90
8114;DHT22;4099;52.684;9.918;2024-01-30T19:54:18;9.30;99.90
8114;DHT22;4099;52.684;9.918;2024-01-30T19:59:22;9.30;99.90
8114;DHT22;4099;52.684;9.918;2024-01-30T20:04:27;9.20;99.90
8114;DHT22;4099;52.684;9.918;2024-01-30T20:09:33;9.10;99.90
8114;DHT22;4099;52.684;9.918;2024-01-30T20:14:36;9.10;99.90
8114;DHT22;4099;52.684;9.918;2024-01-30T20:19:43;9.10;99.90
8114;DHT22;4099;52.684;9.918;2024-01-30T20:24:46;9.10;99.90
8114;DHT22;4099;52.684;9.918;2024-01-30T20:29:48;9.10;99.90
8114;DHT22;4099;52.684;9.918;2024-01-30T20:34:55;9.00;99.90
8114;DHT22;4099;52.684;9.918;2024-01-30T20:40:00;9.00;99.90
8114;DHT22;4099;52.684;9.918;2024-01-30T20:45:02;8.90;99.90
8114;DHT22;4099;52.684;9.918;2024-01-30T20:50:06;9.00;99.90
8114;DHT22;4099;52.684;9.918;2024-01-30T20:55:12;9.00;99.90
8114;DHT22;4099;52.684;9.918;2024-01-30T21:00:14;9.00;99.90
8114;DHT22;4099;52.684;9.918;2024-01-30T21:05:17;8.90;99.90
8114;DHT22;4099;52.684;9.918;2024-01-30T21:10:24;8.90;99.90
8114;DHT22;4099;52.684;9.918;2024-01-30T21:15:26;8.90;99.90
8114;DHT22;4099;52.684;9.918;2024-01-30T21:20:30;8.90;99.90
8114;DHT22;4099;52.684;9.918;2024-01-30T21:25:34;8.90;99.90
8114;DHT22;4099;52.684;9.918;2024-01-30T21:30:36;8.90;99.90
8114;DHT22;4099;52.684;9.918;2024-01-30T21:35:38;8.90;99.90
8114;DHT22;4099;52.684;9.918;2024-01-30T21:40:41;8.80;99.90
8114;DHT22;4099;52.684;9.918;2024-01-30T21:45:44;8.80;99.90
8114;DHT22;4099;52.684;9.918;2024-01-30T21:50:46;8.70;99.90
8114;DHT22;4099;52.684;9.918;2024-01-30T21:55:49;8.70;99.90
8114;DHT22;4099;52.684;9.918;2024-01-30T22:01:02;8.40;99.90
8114;DHT22;4099;52.684;9.918;2024-01-30T22:06:04;8.20;99.90
8114;DHT22;4099;52.684;9.918;2024-01-30T22:11:06;8.00;99.90
8114;DHT22;4099;52.684;9.918;2024-01-30T22:16:12;7.80;99.90
8114;DHT22;4099;52.684;9.918;2024-01-30T22:21:14;7.60;99.90
8114;DHT22;4099;52.684;9.918;2024-01-30T22:26:17;7.50;99.90
8114;DHT22;4099;52.684;9.918;2024-01-30T22:31:20;7.40;99.90
8114;DHT22;4099;52.684;9.918;2024-01-30T22:36:21;7.30;99.90
8114;DHT22;4099;52.684;9.918;2024-01-30T22:41:24;7.20;99.90
8114;DHT22;4099;52.684;9.918;2024-01-30T22:46:27;7.10;99.90
8114;DHT22;4099;52.684;9.918;2024-01-30T22:51:29;7.00;99.90
8114;DHT22;4099;52.684;9.918;2024-01-30T22:56:34;6.90;99.90
8114;DHT22;4099;52.684;9.918;2024-01-30T23:01:47;7.00;99.90
8114;DHT22;4099;52.684;9.918;2024-01-30T23:06:50;7.00;99.90
8114;DHT22;4099;52.684;9.918;2024-01-30T23:11:52;7.00;99.90
8114;DHT22;4099;52.684;9.918;2024-01-30T23:16:58;7.00;99.90
8114;DHT22;4099;52.684;9.918;2024-01-30T23:22:00;7.00;99.90
8114;DHT22;4099;52.684;9.918;2024-01-30T23:27:01;7.00;99.90
8114;DHT22;4099;52.684;9.918;2024-01-30T23:32:10;7.00;99.90
8114;DHT22;4099;52.684;9.918;2024-01-30T23:37:14;6.90;99.90
8114;DHT22;4099;52.684;9.918;2024-01-30T23:42:19;6.90;99.90
8114;DHT22;4099;52.684;9.918;2024-01-30T23:47:22;6.90;99.90
8114;DHT22;4099;52.684;9.918;2024-01-30T23:52:24;6.80;99.90
8114;DHT22;4099;52.684;9.918;2024-01-30T23:57:26;6.70;99.90
